Time,TemperatureF,DewpointF,PressureIn,WindDirection,WindDirectionDegrees,WindSpeedMPH,WindSpeedGustMPH,Humidity,HourlyPrecipIn,Conditions,Clouds,dailyrainin,SoftwareType,DateUTC
2013-04-04 00:05:00,43.0,32.4,29.85,NNE,22,2.7,-999.0,66,-99.99,,,0.00,Acu-Link.com,2013-04-04 05:05:00,
2013-04-04 00:20:00,42.1,32.7,29.88,SW,225,2.7,-999.0,69,-99.99,,,0.00,Acu-Link.com,2013-04-04 05:20:00,
2013-04-04 00:35:00,40.6,32.6,29.88,NE,45,4.2,-999.0,73,-99.99,,,0.00,Acu-Link.com,2013-04-04 05:35:00,
2013-04-04 00:50:00,39.9,32.6,29.87,SE,135,1.7,-999.0,75,-99.99,,,0.00,Acu-Link.com,2013-04-04 05:50:00,
2013-04-04 01:06:00,39.7,32.8,29.86,South,180,3.2,-999.0,76,-99.99,,,0.00,Acu-Link.com,2013-04-04 06:06:00,
2013-04-04 01:36:00,39.6,32.7,29.85,SW,225,2.7,-999.0,76,-99.99,,,0.00,Acu-Link.com,2013-04-04 06:36:00,
2013-04-04 01:51:00,39.7,32.4,29.85,West,270,4.2,-999.0,75,-99.99,,,0.00,Acu-Link.com,2013-04-04 06:51:00,
2013-04-04 02:22:00,38.7,32.8,29.86,WSW,247,4.7,-999.0,79,-99.99,,,0.00,Acu-Link.com,2013-04-04 07:22:00,
2013-04-04 02:37:00,37.9,32.6,29.87,NW,315,2.2,-999.0,81,-99.99,,,0.00,Acu-Link.com,2013-04-04 07:37:00,
2013-04-04 02:52:00,37.2,32.2,29.86,West,270,3.7,-999.0,82,-99.99,,,0.00,Acu-Link.com,2013-04-04 07:52:00,
2013-04-04 03:08:00,37.0,32.0,29.87,WSW,247,2.2,-999.0,82,-99.99,,,0.00,Acu-Link.com,2013-04-04 08:08:00,
2013-04-04 03:39:00,36.0,31.6,29.87,South,180,2.2,-999.0,84,-99.99,,,0.00,Acu-Link.com,2013-04-04 08:39:00,
2013-04-04 03:54:00,35.1,31.1,29.88,WSW,247,3.2,-999.0,85,-99.99,,,0.00,Acu-Link.com,2013-04-04 08:54:00,
2013-04-04 04:24:00,33.8,30.1,29.88,SSW,202,1.7,-999.0,86,-99.99,,,0.00,Acu-Link.com,2013-04-04 09:24:00,
2013-04-04 04:39:00,33.4,29.7,29.87,NW,315,1.7,-999.0,86,-99.99,,,0.00,Acu-Link.com,2013-04-04 09:39:00,
2013-04-04 04:54:00,33.1,29.4,29.88,North,0,1.1,-999.0,86,-99.99,,,0.00,Acu-Link.com,2013-04-04 09:54:00,
2013-04-04 05:10:00,33.1,29.1,29.88,South,180,1.7,-999.0,85,-99.99,,,0.00,Acu-Link.com,2013-04-04 10:10:00,
2013-04-04 05:25:00,32.9,28.9,29.88,WNW,292,3.2,-999.0,85,-99.99,,,0.00,Acu-Link.com,2013-04-04 10:25:00,
2013-04-04 05:40:00,32.7,28.4,29.90,NE,45,1.1,-999.0,84,-99.99,,,0.00,Acu-Link.com,2013-04-04 10:40:00,
2013-04-04 05:55:00,32.5,27.6,29.90,West,270,2.2,-999.0,82,-99.99,,,0.00,Acu-Link.com,2013-04-04 10:55:00,
2013-04-04 06:10:00,32.5,27.6,29.91,East,90,2.2,-999.0,82,-99.99,,,0.00,Acu-Link.com,2013-04-04 11:10:00,
2013-04-04 06:26:00,32.4,27.5,29.91,NNE,22,2.7,-999.0,82,-99.99,,,0.00,Acu-Link.com,2013-04-04 11:26:00,
2013-04-04 07:26:00,31.1,26.3,29.92,SW,225,1.7,-999.0,82,-99.99,,,0.00,Acu-Link.com,2013-04-04 12:26:00,
2013-04-04 07:42:00,31.3,26.5,29.93,WNW,292,3.7,-999.0,82,-99.99,,,0.00,Acu-Link.com,2013-04-04 12:42:00,
2013-04-04 07:57:00,32.0,26.8,29.94,North,0,1.7,-999.0,81,-99.99,,,0.00,Acu-Link.com,2013-04-04 12:57:00,
2013-04-04 08:12:00,33.3,27.2,29.94,NNE,22,1.7,-999.0,78,-99.99,,,0.00,Acu-Link.com,2013-04-04 13:12:00,
2013-04-04 08:27:00,33.8,27.4,29.94,NNE,22,1.1,-999.0,77,-99.99,,,0.00,Acu-Link.com,2013-04-04 13:27:00,
2013-04-04 08:42:00,34.5,27.7,29.94,NNE,22,3.7,-999.0,76,-99.99,,,0.00,Acu-Link.com,2013-04-04 13:42:00,
2013-04-04 08:58:00,35.4,28.3,29.95,NNW,337,4.2,-999.0,75,-99.99,,,0.00,Acu-Link.com,2013-04-04 13:58:00,
2013-04-04 09:13:00,37.0,29.2,29.95,NNE,22,4.2,-999.0,73,-99.99,,,0.00,Acu-Link.com,2013-04-04 14:13:00,
2013-04-04 09:28:00,38.1,29.5,29.95,North,0,1.7,-999.0,71,-99.99,,,0.00,Acu-Link.com,2013-04-04 14:28:00,
2013-04-04 09:59:00,41.4,30.9,29.96,SW,225,3.7,-999.0,66,-99.99,,,0.00,Acu-Link.com,2013-04-04 14:59:00,
2013-04-04 10:14:00,40.1,30.4,29.97,East,90,3.2,-999.0,68,-99.99,,,0.00,Acu-Link.com,2013-04-04 15:14:00,
2013-04-04 11:30:00,43.2,30.7,29.99,South,180,2.7,-999.0,61,-99.99,,,0.00,Acu-Link.com,2013-04-04 16:30:00,
2013-04-04 12:16:00,44.2,30.8,30.00,North,0,2.7,-999.0,59,-99.99,,,0.00,Acu-Link.com,2013-04-04 17:16:00,
2013-04-04 12:47:00,45.3,30.5,30.00,NNW,337,3.7,-999.0,56,-99.99,,,0.00,Acu-Link.com,2013-04-04 17:47:00,
2013-04-04 13:02:00,45.9,30.7,30.00,NNE,22,2.7,-999.0,55,-99.99,,,0.00,Acu-Link.com,2013-04-04 18:02:00,
2013-04-04 13:17:00,46.9,30.7,30.01,ENE,67,3.2,-999.0,53,-99.99,,,0.00,Acu-Link.com,2013-04-04 18:17:00,
2013-04-04 13:32:00,46.6,29.9,30.00,East,90,2.7,-999.0,52,-99.99,,,0.00,Acu-Link.com,2013-04-04 18:32:00,
2013-04-04 13:47:00,46.6,29.5,30.01,NE,45,6.3,-999.0,51,-99.99,,,0.00,Acu-Link.com,2013-04-04 18:47:00,
2013-04-04 14:02:00,46.0,29.4,30.01,NNE,22,2.7,-999.0,52,-99.99,,,0.00,Acu-Link.com,2013-04-04 19:02:00,
2013-04-04 14:18:00,46.2,28.6,30.00,ESE,112,4.2,-999.0,50,-99.99,,,0.00,Acu-Link.com,2013-04-04 19:18:00,
2013-04-04 14:33:00,45.5,28.4,30.00,WNW,292,4.7,-999.0,51,-99.99,,,0.00,Acu-Link.com,2013-04-04 19:33:00,
2013-04-04 14:48:00,46.0,29.4,30.01,SE,135,3.2,-999.0,52,-99.99,,,0.00,Acu-Link.com,2013-04-04 19:48:00,
2013-04-04 15:19:00,43.9,27.4,30.00,East,90,4.7,-999.0,52,-99.99,,,0.00,Acu-Link.com,2013-04-04 20:19:00,
2013-04-04 15:49:00,42.6,27.6,30.00,SSE,157,4.2,-999.0,55,-99.99,,,0.00,Acu-Link.com,2013-04-04 20:49:00,
2013-04-04 16:04:00,42.8,27.3,30.00,South,180,3.2,-999.0,54,-99.99,,,0.00,Acu-Link.com,2013-04-04 21:04:00,
2013-04-04 16:19:00,42.3,26.9,30.00,West,270,3.7,-999.0,54,-99.99,,,0.00,Acu-Link.com,2013-04-04 21:19:00,
2013-04-04 16:35:00,41.5,26.6,30.00,ENE,67,4.2,-999.0,55,-99.99,,,0.00,Acu-Link.com,2013-04-04 21:35:00,
2013-04-04 16:50:00,42.3,27.7,30.00,NNE,22,1.7,-999.0,56,-99.99,,,0.00,Acu-Link.com,2013-04-04 21:50:00,
2013-04-04 17:05:00,40.6,25.3,30.00,East,90,4.2,-999.0,54,-99.99,,,0.00,Acu-Link.com,2013-04-04 22:05:00,
2013-04-04 17:20:00,40.3,26.3,30.01,WNW,292,4.7,-999.0,57,-99.99,,,0.00,Acu-Link.com,2013-04-04 22:20:00,
2013-04-04 17:35:00,39.4,25.9,30.01,North,0,2.7,-999.0,58,-99.99,,,0.00,Acu-Link.com,2013-04-04 22:35:00,
2013-04-04 17:51:00,39.4,25.5,30.00,NNE,22,3.2,-999.0,57,-99.99,,,0.00,Acu-Link.com,2013-04-04 22:51:00,
2013-04-04 18:21:00,38.1,24.2,30.01,NE,45,2.7,-999.0,57,-99.99,,,0.00,Acu-Link.com,2013-04-04 23:21:00,
2013-04-04 18:36:00,36.9,23.1,30.02,WSW,247,3.2,-999.0,57,-99.99,,,0.00,Acu-Link.com,2013-04-04 23:36:00,
2013-04-04 18:51:00,36.0,22.7,30.02,West,270,5.3,-999.0,58,-99.99,,,0.00,Acu-Link.com,2013-04-04 23:51:00,
2013-04-04 19:07:00,34.9,22.0,30.02,NW,315,1.7,-999.0,59,-99.99,,,0.00,Acu-Link.com,2013-04-05 00:07:00,
2013-04-04 19:22:00,34.2,22.6,30.02,ESE,112,2.2,-999.0,62,-99.99,,,0.00,Acu-Link.com,2013-04-05 00:22:00,
2013-04-04 19:37:00,33.3,23.2,30.02,NE,45,1.7,-999.0,66,-99.99,,,0.00,Acu-Link.com,2013-04-05 00:37:00,
2013-04-04 19:53:00,32.0,23.0,30.02,North,0,1.7,-999.0,69,-99.99,,,0.00,Acu-Link.com,2013-04-05 00:53:00,
2013-04-04 20:08:00,30.9,23.0,30.02,West,270,1.1,-999.0,72,-99.99,,,0.00,Acu-Link.com,2013-04-05 01:08:00,
2013-04-04 20:23:00,30.2,22.6,30.03,ESE,112,1.1,-999.0,73,-99.99,,,0.00,Acu-Link.com,2013-04-05 01:23:00,
2013-04-04 20:53:00,28.9,22.6,30.03,WNW,292,1.7,-999.0,77,-99.99,,,0.00,Acu-Link.com,2013-04-05 01:53:00,
2013-04-04 21:09:00,28.6,22.3,30.03,NNE,22,1.1,-999.0,77,-99.99,,,0.00,Acu-Link.com,2013-04-05 02:09:00,
2013-04-04 21:24:00,27.9,21.9,30.03,NE,45,1.1,-999.0,78,-99.99,,,0.00,Acu-Link.com,2013-04-05 02:24:00,
2013-04-04 21:54:00,27.0,21.7,30.05,NNW,337,2.2,-999.0,80,-99.99,,,0.00,Acu-Link.com,2013-04-05 02:54:00,
2013-04-04 22:10:00,26.6,21.3,30.04,South,180,0.0,-999.0,80,-99.99,,,0.00,Acu-Link.com,2013-04-05 03:10:00,
2013-04-04 22:25:00,26.4,21.1,30.05,NE,45,2.2,-999.0,80,-99.99,,,0.00,Acu-Link.com,2013-04-05 03:25:00,
2013-04-04 22:40:00,26.2,21.2,30.05,NNW,337,1.1,-999.0,81,-99.99,,,0.00,Acu-Link.com,2013-04-05 03:40:00,
2013-04-04 22:55:00,25.7,20.7,30.06,North,0,1.7,-999.0,81,-99.99,,,0.00,Acu-Link.com,2013-04-05 03:55:00,
2013-04-04 23:10:00,25.5,20.5,30.06,ENE,67,1.7,-999.0,81,-99.99,,,0.00,Acu-Link.com,2013-04-05 04:10:00,
2013-04-04 23:26:00,25.2,20.5,30.06,NNE,22,1.7,-999.0,82,-99.99,,,0.00,Acu-Link.com,2013-04-05 04:26:00,